createdAt,value
2018-03-06T00:00:48.162Z,0.00
2018-03-06T00:01:48.159Z,0.00
2018-03-06T00:02:48.159Z,0.00
2018-03-06T00:03:48.184Z,0.00
2018-03-06T00:04:48.163Z,0.00
2018-03-06T00:05:48.215Z,0.00
2018-03-06T00:06:48.178Z,0.00
2018-03-06T00:07:48.178Z,0.00
2018-03-06T00:08:48.183Z,0.00
2018-03-06T00:09:48.187Z,0.00
2018-03-06T00:10:48.187Z,0.00
2018-03-06T00:11:48.186Z,0.00
2018-03-06T00:12:48.210Z,0.00
2018-03-06T00:13:48.205Z,0.00
2018-03-06T00:14:48.203Z,0.00
2018-03-06T00:15:48.213Z,0.00
2018-03-06T00:16:48.312Z,0.00
2018-03-06T00:17:48.201Z,0.00
2018-03-06T00:18:48.234Z,0.00
2018-03-06T00:19:48.316Z,0.00
2018-03-06T00:20:48.224Z,0.00
2018-03-06T00:21:48.211Z,0.00
2018-03-06T00:22:48.254Z,0.00
2018-03-06T00:23:48.250Z,0.00
2018-03-06T00:24:48.217Z,0.00
2018-03-06T00:25:48.210Z,0.00
2018-03-06T00:26:48.755Z,0.00
2018-03-06T00:27:48.221Z,0.00
2018-03-06T00:28:48.220Z,0.00
2018-03-06T00:29:48.220Z,0.00
2018-03-06T00:30:48.218Z,0.00
2018-03-06T00:31:48.221Z,0.00
2018-03-06T00:32:48.222Z,0.00
2018-03-06T00:33:48.232Z,0.00
2018-03-06T00:34:48.233Z,0.00
2018-03-06T00:35:48.230Z,0.00
2018-03-06T00:36:48.236Z,0.00
2018-03-06T00:37:48.231Z,0.00
2018-03-06T00:38:48.248Z,0.00
2018-03-06T00:39:48.247Z,0.00
2018-03-06T00:40:48.252Z,0.00
2018-03-06T00:41:48.243Z,0.00
2018-03-06T00:42:48.264Z,0.00
2018-03-06T00:43:48.257Z,0.00
2018-03-06T00:44:48.267Z,0.00
2018-03-06T00:45:48.247Z,0.00
2018-03-06T00:46:48.257Z,0.00
2018-03-06T00:47:48.282Z,0.00
2018-03-06T00:48:48.258Z,0.00
2018-03-06T00:49:48.263Z,0.00
2018-03-06T00:50:48.265Z,4.00
2018-03-06T00:51:48.257Z,4.00
2018-03-06T00:52:48.261Z,0.00
2018-03-06T00:53:48.277Z,0.00
2018-03-06T00:54:48.263Z,0.00
2018-03-06T00:55:48.275Z,0.00
2018-03-06T00:56:48.275Z,0.00
2018-03-06T00:57:48.286Z,0.00
2018-03-06T00:58:48.279Z,0.00
2018-03-06T00:59:48.279Z,0.00
2018-03-06T01:00:48.278Z,0.00
2018-03-06T01:01:48.285Z,0.00
2018-03-06T01:02:48.292Z,0.00
2018-03-06T01:03:48.289Z,0.00
2018-03-06T01:04:48.292Z,0.00
2018-03-06T01:05:48.297Z,0.00
2018-03-06T01:06:48.318Z,0.00
2018-03-06T01:07:48.297Z,0.00
2018-03-06T01:08:48.294Z,0.00
2018-03-06T01:09:48.312Z,0.00
2018-03-06T01:10:48.296Z,0.00
2018-03-06T01:11:48.300Z,0.00
2018-03-06T01:12:48.300Z,0.00
2018-03-06T01:13:48.308Z,0.00
2018-03-06T01:14:48.316Z,0.00
2018-03-06T01:15:48.307Z,0.00
2018-03-06T01:16:50.097Z,0.00
2018-03-06T01:17:50.064Z,0.00
2018-03-06T01:18:48.318Z,0.00
2018-03-06T01:19:48.337Z,0.00
2018-03-06T01:20:48.325Z,0.00
2018-03-06T01:21:48.323Z,0.00
2018-03-06T01:22:48.356Z,0.00
2018-03-06T01:23:48.331Z,0.00
2018-03-06T01:24:48.324Z,0.00
2018-03-06T01:25:48.334Z,0.00
2018-03-06T01:26:48.332Z,0.00
2018-03-06T01:27:48.338Z,0.00
2018-03-06T01:28:48.345Z,0.00
2018-03-06T01:29:48.346Z,0.00
2018-03-06T01:30:48.340Z,0.00
2018-03-06T01:31:48.340Z,0.00
2018-03-06T01:32:48.353Z,0.00
2018-03-06T01:33:48.339Z,0.00
2018-03-06T01:34:48.363Z,0.00
2018-03-06T01:35:48.348Z,0.00
2018-03-06T01:36:48.351Z,0.00
2018-03-06T01:37:48.350Z,0.00
2018-03-06T01:38:48.366Z,0.00
2018-03-06T01:39:48.366Z,0.00
2018-03-06T01:40:48.376Z,0.00
2018-03-06T01:41:48.367Z,0.00
2018-03-06T01:42:48.379Z,0.00
2018-03-06T01:43:48.378Z,0.00
2018-03-06T01:44:48.366Z,0.00
2018-03-06T01:45:48.361Z,0.00
2018-03-06T01:46:48.370Z,0.00
2018-03-06T01:47:48.371Z,0.00
2018-03-06T01:48:48.371Z,0.00
2018-03-06T01:49:48.376Z,0.00
2018-03-06T01:50:48.379Z,0.00
2018-03-06T01:51:48.373Z,0.00
2018-03-06T01:52:48.381Z,0.00
2018-03-06T01:53:48.437Z,0.00
2018-03-06T01:54:48.380Z,0.00
2018-03-06T01:55:48.378Z,0.00
2018-03-06T01:56:48.385Z,0.00
2018-03-06T01:57:48.396Z,0.00
2018-03-06T01:58:48.380Z,0.00
2018-03-06T01:59:48.392Z,0.00
2018-03-06T02:00:48.393Z,0.00
2018-03-06T02:01:48.505Z,0.00
2018-03-06T02:02:48.404Z,0.00
2018-03-06T02:03:48.400Z,0.00
2018-03-06T02:04:48.407Z,0.00
2018-03-06T02:05:48.398Z,0.00
2018-03-06T02:06:48.403Z,0.00
2018-03-06T02:07:48.403Z,0.00
2018-03-06T02:08:48.413Z,0.00
2018-03-06T02:09:48.405Z,0.00
2018-03-06T02:10:48.408Z,0.00
2018-03-06T02:11:48.408Z,0.00
2018-03-06T02:12:48.411Z,0.00
2018-03-06T02:13:48.424Z,0.00
2018-03-06T02:14:48.409Z,0.00
2018-03-06T02:15:48.415Z,0.00
2018-03-06T02:16:48.413Z,0.00
2018-03-06T02:17:48.422Z,0.00
2018-03-06T02:18:48.423Z,0.00
2018-03-06T02:19:48.426Z,0.00
2018-03-06T02:20:48.433Z,0.00
2018-03-06T02:21:48.442Z,0.00
2018-03-06T02:22:48.440Z,0.00
2018-03-06T02:23:48.435Z,0.00
2018-03-06T02:24:48.432Z,0.00
2018-03-06T02:25:48.440Z,0.00
2018-03-06T02:26:48.437Z,0.00
2018-03-06T02:27:48.439Z,0.00
2018-03-06T02:28:48.439Z,0.00
2018-03-06T02:29:48.442Z,0.00
2018-03-06T02:30:48.434Z,0.00
2018-03-06T02:31:48.446Z,0.00
2018-03-06T02:32:48.442Z,0.00
2018-03-06T02:33:48.442Z,0.00
2018-03-06T02:34:48.441Z,0.00
2018-03-06T02:35:48.448Z,0.00
2018-03-06T02:36:48.444Z,0.00
2018-03-06T02:37:48.449Z,0.00
2018-03-06T02:38:48.454Z,4.00
2018-03-06T02:39:48.446Z,0.00
2018-03-06T02:40:48.452Z,0.00
2018-03-06T02:41:48.459Z,0.00
2018-03-06T02:42:48.465Z,0.00
2018-03-06T02:43:48.455Z,0.00
2018-03-06T02:44:48.477Z,0.00
2018-03-06T02:45:48.462Z,0.00
2018-03-06T02:46:49.280Z,0.00
2018-03-06T02:47:48.477Z,0.00
2018-03-06T02:48:48.485Z,0.00
2018-03-06T02:49:48.471Z,0.00
2018-03-06T02:50:48.470Z,0.00
2018-03-06T02:51:48.467Z,0.00
2018-03-06T02:52:48.471Z,0.00
2018-03-06T02:53:48.481Z,0.00
2018-03-06T02:54:48.471Z,0.00
2018-03-06T02:55:48.481Z,0.00
2018-03-06T02:56:48.482Z,0.00
2018-03-06T02:57:48.491Z,0.00
2018-03-06T02:58:48.516Z,0.00
2018-03-06T02:59:48.487Z,0.00
2018-03-06T03:00:48.487Z,0.00
2018-03-06T03:01:48.548Z,0.00
2018-03-06T03:02:48.504Z,0.00
2018-03-06T03:03:48.484Z,0.00
2018-03-06T03:04:48.496Z,0.00
2018-03-06T03:05:48.489Z,0.00
2018-03-06T03:06:48.488Z,0.00
2018-03-06T03:07:48.491Z,0.00
2018-03-06T03:08:48.496Z,0.00
2018-03-06T03:09:48.501Z,0.00
2018-03-06T03:10:48.499Z,0.00
2018-03-06T03:11:48.496Z,0.00
2018-03-06T03:12:48.502Z,0.00
2018-03-06T03:13:48.498Z,0.00
2018-03-06T03:14:48.507Z,0.00
2018-03-06T03:15:48.500Z,0.00
2018-03-06T03:16:48.510Z,0.00
2018-03-06T03:17:48.505Z,0.00
2018-03-06T03:18:48.506Z,0.00
2018-03-06T03:19:48.520Z,0.00
2018-03-06T03:20:48.515Z,0.00
2018-03-06T03:21:48.514Z,0.00
2018-03-06T03:22:48.508Z,0.00
2018-03-06T03:23:48.510Z,0.00
2018-03-06T03:24:48.516Z,0.00
2018-03-06T03:25:48.515Z,0.00
2018-03-06T03:26:48.521Z,0.00
2018-03-06T03:27:48.515Z,0.00
2018-03-06T03:28:48.517Z,0.00
2018-03-06T03:29:48.520Z,0.00
2018-03-06T03:30:48.516Z,0.00
2018-03-06T03:31:48.538Z,0.00
2018-03-06T03:32:48.531Z,0.00
2018-03-06T03:33:48.532Z,0.00
2018-03-06T03:34:48.522Z,0.00
2018-03-06T03:35:48.524Z,0.00
2018-03-06T03:36:48.533Z,0.00
2018-03-06T03:37:48.529Z,0.00
2018-03-06T03:38:48.544Z,0.00
2018-03-06T03:39:48.533Z,0.00
2018-03-06T03:40:48.537Z,0.00
2018-03-06T03:41:48.532Z,0.00
2018-03-06T03:42:48.538Z,0.00
2018-03-06T03:43:48.538Z,0.00
2018-03-06T03:44:48.534Z,0.00
2018-03-06T03:45:48.536Z,0.00
2018-03-06T03:46:48.537Z,0.00
2018-03-06T03:47:48.540Z,0.00
2018-03-06T03:48:48.544Z,0.00
2018-03-06T03:49:48.543Z,0.00
2018-03-06T03:50:48.547Z,0.00
2018-03-06T03:51:48.569Z,0.00
2018-03-06T03:52:49.286Z,0.00
2018-03-06T03:53:48.554Z,0.00
2018-03-06T03:54:48.559Z,0.00
2018-03-06T03:55:48.556Z,0.00
2018-03-06T03:56:48.557Z,0.00
2018-03-06T03:57:48.556Z,0.00
2018-03-06T03:58:48.555Z,0.00
2018-03-06T03:59:48.560Z,0.00
2018-03-06T04:00:48.568Z,0.00
2018-03-06T04:01:48.569Z,0.00
2018-03-06T04:02:48.564Z,0.00
2018-03-06T04:03:48.556Z,0.00
2018-03-06T04:04:48.561Z,0.00
2018-03-06T04:05:48.560Z,0.00
2018-03-06T04:06:48.570Z,0.00
2018-03-06T04:07:48.566Z,0.00
2018-03-06T04:08:48.577Z,0.00
2018-03-06T04:09:48.564Z,0.00
2018-03-06T04:10:48.566Z,0.00
2018-03-06T04:11:48.578Z,0.00
2018-03-06T04:12:48.570Z,0.00
2018-03-06T04:13:48.586Z,0.00
2018-03-06T04:14:48.569Z,0.00
2018-03-06T04:15:48.576Z,0.00
2018-03-06T04:16:48.577Z,0.00
2018-03-06T04:17:48.579Z,0.00
2018-03-06T04:18:48.581Z,0.00
2018-03-06T04:19:48.582Z,0.00
2018-03-06T04:20:48.630Z,0.00
2018-03-06T04:21:48.586Z,0.00
2018-03-06T04:22:48.585Z,0.00
2018-03-06T04:23:48.580Z,0.00
2018-03-06T04:24:48.591Z,0.00
2018-03-06T04:25:48.601Z,0.00
2018-03-06T04:26:48.599Z,0.00
2018-03-06T04:27:48.586Z,0.00
2018-03-06T04:28:48.597Z,0.00
2018-03-06T04:29:48.589Z,0.00
2018-03-06T04:30:48.599Z,0.00
2018-03-06T04:31:48.594Z,0.00
2018-03-06T04:32:48.602Z,0.00
2018-03-06T04:33:48.590Z,0.00
2018-03-06T04:34:48.597Z,0.00
2018-03-06T04:35:48.598Z,0.00
2018-03-06T04:36:48.609Z,0.00
2018-03-06T04:37:48.603Z,0.00
2018-03-06T04:38:48.605Z,0.00
2018-03-06T04:39:48.639Z,4.00
2018-03-06T04:40:48.604Z,0.00
2018-03-06T04:41:48.611Z,0.00
2018-03-06T04:42:48.616Z,0.00
2018-03-06T04:43:48.613Z,0.00
2018-03-06T04:44:48.606Z,0.00
2018-03-06T04:45:48.610Z,0.00
2018-03-06T04:46:48.609Z,0.00
2018-03-06T04:47:48.611Z,0.00
2018-03-06T04:48:48.619Z,0.00
2018-03-06T04:49:48.619Z,0.00
2018-03-06T04:50:48.624Z,0.00
2018-03-06T04:51:48.640Z,0.00
2018-03-06T04:52:48.620Z,0.00
2018-03-06T04:53:48.616Z,0.00
2018-03-06T04:54:48.618Z,0.00
2018-03-06T04:55:48.619Z,0.00
2018-03-06T04:56:48.621Z,0.00
2018-03-06T04:57:48.711Z,0.00
2018-03-06T04:58:48.635Z,0.00
2018-03-06T04:59:48.621Z,0.00
2018-03-06T05:00:48.630Z,0.00
2018-03-06T05:01:48.637Z,0.00
2018-03-06T05:02:48.629Z,0.00
2018-03-06T05:03:48.629Z,0.00
2018-03-06T05:04:48.631Z,0.00
2018-03-06T05:05:48.632Z,0.00
2018-03-06T05:06:48.663Z,0.00
2018-03-06T05:07:48.638Z,0.00
2018-03-06T05:08:48.629Z,4.00
2018-03-06T05:09:48.638Z,0.00
2018-03-06T05:10:48.642Z,0.00
2018-03-06T05:11:48.644Z,4.00
2018-03-06T05:12:48.652Z,0.00
2018-03-06T05:13:48.641Z,0.00
2018-03-06T05:14:48.641Z,4.00
2018-03-06T05:15:48.645Z,0.00
2018-03-06T05:16:48.645Z,0.00
2018-03-06T05:17:48.746Z,4.00
2018-03-06T05:18:48.672Z,0.00
2018-03-06T05:19:48.643Z,0.00
2018-03-06T05:20:48.655Z,4.00
2018-03-06T05:21:48.644Z,0.00
2018-03-06T05:22:48.658Z,0.00
2018-03-06T05:23:48.671Z,0.00
2018-03-06T05:24:48.659Z,0.00
2018-03-06T05:25:48.660Z,4.00
2018-03-06T05:26:48.718Z,4.00
2018-03-06T05:27:48.657Z,4.00
2018-03-06T05:28:48.658Z,4.00
2018-03-06T05:29:48.656Z,0.00
2018-03-06T05:30:48.654Z,4.00
2018-03-06T05:31:48.664Z,4.00
2018-03-06T05:32:48.660Z,4.00
2018-03-06T05:33:48.667Z,4.00
2018-03-06T05:34:48.666Z,4.00
2018-03-06T05:35:48.660Z,4.00
2018-03-06T05:36:48.674Z,4.00
2018-03-06T05:37:48.669Z,8.00
2018-03-06T05:38:48.698Z,8.00
2018-03-06T05:39:48.669Z,8.00
2018-03-06T05:40:48.685Z,12.00
2018-03-06T05:41:48.686Z,12.00
2018-03-06T05:42:48.690Z,12.00
2018-03-06T05:43:48.670Z,16.00
2018-03-06T05:44:48.673Z,16.00
2018-03-06T05:45:48.709Z,16.00
2018-03-06T05:46:48.688Z,20.00
2018-03-06T05:47:48.677Z,24.00
2018-03-06T05:48:48.674Z,24.00
2018-03-06T05:50:41.667Z,36.00
2018-03-06T05:51:41.616Z,40.00
2018-03-06T05:53:34.632Z,52.00
2018-03-06T05:54:34.578Z,56.00
2018-03-06T05:56:27.538Z,72.00
2018-03-06T05:57:27.520Z,80.00
2018-03-06T05:59:20.492Z,92.00
2018-03-06T06:00:20.466Z,100.00
2018-03-06T06:02:13.458Z,124.00
2018-03-06T06:03:13.430Z,132.00
2018-03-06T06:05:06.392Z,164.00
2018-03-06T06:06:06.389Z,184.00
2018-03-06T06:07:59.366Z,220.00
2018-03-06T06:08:59.342Z,236.00
2018-03-06T06:10:52.308Z,280.00
2018-03-06T06:11:52.302Z,300.00
2018-03-06T06:13:45.285Z,356.00
2018-03-06T06:14:45.256Z,388.00
2018-03-06T06:16:38.225Z,452.00
2018-03-06T06:17:38.211Z,480.00
2018-03-06T06:18:38.225Z,512.00
2018-03-06T06:19:38.227Z,552.00
2018-03-06T06:20:38.224Z,572.00
2018-03-06T06:21:38.228Z,608.00
2018-03-06T06:22:38.225Z,664.00
2018-03-06T06:23:38.232Z,736.00
2018-03-06T06:24:38.273Z,816.00
2018-03-06T06:25:38.227Z,888.00
2018-03-06T06:26:38.249Z,960.00
2018-03-06T06:27:38.228Z,1032.00
2018-03-06T06:28:38.239Z,1120.00
2018-03-06T06:29:38.229Z,1200.00
2018-03-06T06:30:38.233Z,1256.00
2018-03-06T06:31:38.234Z,1312.00
2018-03-06T06:32:38.241Z,1384.00
2018-03-06T06:33:38.238Z,1464.00
2018-03-06T06:34:38.236Z,1548.00
2018-03-06T06:35:39.195Z,1648.00
2018-03-06T06:36:38.241Z,1752.00
2018-03-06T06:37:38.244Z,1868.00
2018-03-06T06:38:38.240Z,1964.00
2018-03-06T06:39:38.247Z,2044.00
2018-03-06T06:40:38.246Z,2128.00
2018-03-06T06:41:38.246Z,2220.00
2018-03-06T06:42:38.291Z,2344.00
2018-03-06T06:43:38.256Z,2488.00
2018-03-06T06:44:38.261Z,2676.00
2018-03-06T06:45:38.303Z,2828.00
2018-03-06T06:46:38.380Z,2988.00
2018-03-06T06:47:38.292Z,3108.00
2018-03-06T06:48:38.260Z,3212.00
2018-03-06T06:49:38.263Z,3356.00
2018-03-06T06:50:38.261Z,3332.00
2018-03-06T06:51:38.268Z,3032.00
2018-03-06T06:52:38.264Z,2868.00
2018-03-06T06:53:38.279Z,3092.00
2018-03-06T06:54:38.274Z,3116.00
2018-03-06T06:55:38.278Z,3052.00
2018-03-06T06:56:38.285Z,2968.00
2018-03-06T06:57:38.277Z,2896.00
2018-03-06T06:58:38.288Z,2852.00
2018-03-06T06:59:38.283Z,2884.00
2018-03-06T07:00:38.311Z,2892.00
2018-03-06T07:01:38.286Z,2872.00
2018-03-06T07:02:38.295Z,2904.00
2018-03-06T07:03:38.293Z,2960.00
2018-03-06T07:04:38.289Z,2984.00
2018-03-06T07:05:38.291Z,2992.00
2018-03-06T07:06:38.311Z,2940.00
2018-03-06T07:07:38.300Z,2992.00
2018-03-06T07:08:38.300Z,3124.00
2018-03-06T07:09:38.334Z,3192.00
2018-03-06T07:10:38.305Z,3216.00
2018-03-06T07:11:38.306Z,3476.00
2018-03-06T07:12:38.312Z,3768.00
2018-03-06T07:13:38.323Z,3808.00
2018-03-06T07:14:38.313Z,3912.00
2018-03-06T07:15:38.313Z,4360.00
2018-03-06T07:16:38.315Z,4928.00
2018-03-06T07:17:38.323Z,5324.00
2018-03-06T07:18:38.328Z,5840.00
2018-03-06T07:19:38.327Z,6300.00
2018-03-06T07:20:38.328Z,6692.00
2018-03-06T07:21:38.325Z,7084.00
2018-03-06T07:22:38.330Z,7588.00
2018-03-06T07:23:38.341Z,8816.00
2018-03-06T07:24:38.339Z,11024.00
2018-03-06T07:25:38.349Z,12820.00
2018-03-06T07:26:38.348Z,14784.00
2018-03-06T07:27:38.369Z,15616.00
2018-03-06T07:28:38.347Z,18240.00
2018-03-06T07:29:38.362Z,24960.00
2018-03-06T07:30:39.214Z,31296.00
2018-03-06T07:31:38.361Z,32768.00
2018-03-06T07:32:38.374Z,33024.00
2018-03-06T07:33:38.384Z,34112.00
2018-03-06T07:34:38.382Z,38336.00
2018-03-06T07:35:38.382Z,41952.00
2018-03-06T07:36:38.370Z,38432.00
2018-03-06T07:37:38.395Z,22720.00
2018-03-06T07:38:38.444Z,10100.00
2018-03-06T07:39:38.410Z,9032.00
2018-03-06T07:40:38.393Z,8744.00
2018-03-06T07:41:38.400Z,8552.00
2018-03-06T07:42:38.453Z,8556.00
2018-03-06T07:43:38.402Z,8492.00
2018-03-06T07:44:38.416Z,8608.00
2018-03-06T07:45:38.418Z,8632.00
2018-03-06T07:46:38.414Z,8768.00
2018-03-06T07:47:38.425Z,8964.00
2018-03-06T07:48:38.425Z,9428.00
2018-03-06T07:49:38.433Z,10608.00
2018-03-06T07:50:38.446Z,21984.00
2018-03-06T07:51:38.446Z,35904.00
2018-03-06T07:52:38.452Z,40480.00
2018-03-06T07:53:38.449Z,40160.00
2018-03-06T07:54:38.451Z,40064.00
2018-03-06T07:55:38.463Z,39328.00
2018-03-06T07:56:38.467Z,41152.00
2018-03-06T07:57:38.508Z,42048.00
2018-03-06T07:58:38.485Z,45120.00
2018-03-06T07:59:38.487Z,44512.00
2018-03-06T08:00:38.532Z,45056.00
2018-03-06T08:01:38.502Z,44832.00
2018-03-06T08:02:38.508Z,43936.00
2018-03-06T08:03:38.501Z,44256.00
2018-03-06T08:04:38.526Z,46880.00
2018-03-06T08:05:38.511Z,51616.00
2018-03-06T08:06:38.517Z,51040.00
2018-03-06T08:07:38.534Z,52352.00
2018-03-06T08:08:38.530Z,55840.00
2018-03-06T08:09:38.558Z,56256.00
2018-03-06T08:10:38.551Z,55680.00
2018-03-06T08:11:38.576Z,55488.00
2018-03-06T08:12:38.561Z,54656.00
2018-03-06T08:13:38.563Z,54208.00
2018-03-06T08:14:38.574Z,54624.00
2018-03-06T08:15:38.577Z,54208.00
2018-03-06T08:16:38.588Z,53184.00
2018-03-06T08:17:39.219Z,51520.00
2018-03-06T08:18:38.609Z,52352.00
2018-03-06T08:19:38.617Z,57984.00
2018-03-06T08:20:38.637Z,58880.00
2018-03-06T08:21:38.714Z,57120.00
2018-03-06T08:22:38.656Z,54464.00
2018-03-06T08:23:38.667Z,56640.00
2018-03-06T08:24:38.686Z,60320.00
2018-03-06T08:25:38.671Z,61408.00
2018-03-06T08:26:38.732Z,62528.00
2018-03-06T08:27:38.708Z,65632.00
2018-03-06T08:28:38.743Z,68032.00
2018-03-06T08:29:38.724Z,67968.00
2018-03-06T08:30:38.762Z,46816.00
2018-03-06T08:31:38.743Z,44000.00
2018-03-06T08:32:38.790Z,44512.00
2018-03-06T08:33:38.754Z,44768.00
2018-03-06T08:34:38.768Z,37408.00
2018-03-06T08:35:38.779Z,33824.00
2018-03-06T08:36:38.790Z,30624.00
2018-03-06T08:37:38.823Z,29568.00
2018-03-06T08:38:38.812Z,28704.00
2018-03-06T08:39:38.830Z,28160.00
2018-03-06T08:40:38.844Z,27584.00
2018-03-06T08:41:38.880Z,27392.00
2018-03-06T08:42:38.856Z,28064.00
2018-03-06T08:43:38.880Z,28640.00
2018-03-06T08:44:38.888Z,28128.00
2018-03-06T08:45:38.908Z,28608.00
2018-03-06T08:46:38.907Z,25888.00
2018-03-06T08:47:38.928Z,28192.00
2018-03-06T08:48:38.945Z,26816.00
2018-03-06T08:49:38.954Z,26720.00
2018-03-06T08:50:38.964Z,29024.00
2018-03-06T08:51:38.980Z,30528.00
2018-03-06T08:52:39.009Z,30816.00
2018-03-06T08:53:39.004Z,31296.00
2018-03-06T08:54:39.048Z,32352.00
2018-03-06T08:55:39.049Z,31904.00
2018-03-06T08:56:39.053Z,31968.00
2018-03-06T08:57:39.071Z,32832.00
2018-03-06T08:58:39.124Z,30624.00
2018-03-06T08:59:39.095Z,28128.00
2018-03-06T09:00:39.125Z,25472.00
2018-03-06T09:01:39.114Z,23680.00
2018-03-06T09:02:39.142Z,23392.00
2018-03-06T09:03:39.205Z,25824.00
2018-03-06T09:04:39.166Z,26752.00
2018-03-06T09:05:39.179Z,28736.00
2018-03-06T09:06:39.208Z,28928.00
2018-03-06T09:07:39.211Z,30368.00
2018-03-06T09:08:39.222Z,30400.00
2018-03-06T09:09:39.240Z,29792.00
2018-03-06T09:10:39.261Z,28736.00
2018-03-06T09:11:39.270Z,30752.00
2018-03-06T09:12:39.284Z,30912.00
2018-03-06T09:13:39.304Z,32224.00
2018-03-06T09:14:39.308Z,33536.00
2018-03-06T09:15:39.333Z,33408.00
2018-03-06T09:16:39.348Z,31776.00
2018-03-06T09:17:39.361Z,31616.00
2018-03-06T09:18:39.375Z,30944.00
2018-03-06T09:19:39.427Z,28704.00
2018-03-06T09:20:39.410Z,30848.00
2018-03-06T09:21:39.445Z,31712.00
2018-03-06T09:22:39.440Z,30720.00
2018-03-06T09:23:39.449Z,32736.00
2018-03-06T09:24:39.464Z,31040.00
2018-03-06T09:25:39.477Z,27040.00
2018-03-06T09:26:39.493Z,33376.00
2018-03-06T09:27:39.506Z,33024.00
2018-03-06T09:28:39.525Z,33152.00
2018-03-06T09:29:39.533Z,33184.00
2018-03-06T09:30:39.548Z,33216.00
2018-03-06T09:31:39.592Z,32608.00
2018-03-06T09:32:39.579Z,30560.00
2018-03-06T09:33:39.593Z,31840.00
2018-03-06T09:34:39.620Z,31872.00
2018-03-06T09:35:39.632Z,30688.00
2018-03-06T09:36:39.646Z,30816.00
2018-03-06T09:37:39.661Z,30752.00
2018-03-06T09:38:39.673Z,32000.00
2018-03-06T09:39:39.691Z,31264.00
2018-03-06T09:40:39.701Z,31936.00
2018-03-06T09:41:39.710Z,31296.00
2018-03-06T09:42:39.733Z,34208.00
2018-03-06T09:43:39.743Z,34176.00
2018-03-06T09:44:39.763Z,36960.00
2018-03-06T09:45:39.779Z,38656.00
2018-03-06T09:46:39.799Z,40896.00
2018-03-06T09:47:39.811Z,44384.00
2018-03-06T09:48:39.848Z,46016.00
2018-03-06T09:49:39.868Z,46656.00
2018-03-06T09:50:39.861Z,46688.00
2018-03-06T09:51:39.863Z,47552.00
2018-03-06T09:52:39.875Z,45632.00
2018-03-06T09:53:39.894Z,39776.00
2018-03-06T09:54:39.902Z,46080.00
2018-03-06T09:55:39.920Z,43296.00
2018-03-06T09:56:40.084Z,44704.00
2018-03-06T09:57:39.960Z,46368.00
2018-03-06T09:58:39.965Z,48192.00
2018-03-06T09:59:39.994Z,50656.00
2018-03-06T10:00:40.004Z,40896.00
2018-03-06T10:01:40.014Z,47808.00
2018-03-06T10:02:40.047Z,48928.00
2018-03-06T10:03:40.051Z,47296.00
2018-03-06T10:04:40.074Z,48960.00
2018-03-06T10:05:40.080Z,50496.00
2018-03-06T10:06:40.098Z,47968.00
2018-03-06T10:07:40.112Z,47136.00
2018-03-06T10:08:40.140Z,45696.00
2018-03-06T10:09:40.142Z,46080.00
2018-03-06T10:10:40.197Z,43296.00
2018-03-06T10:11:40.194Z,41440.00
2018-03-06T10:12:40.196Z,39936.00
2018-03-06T10:13:40.216Z,37856.00
2018-03-06T10:14:40.234Z,37184.00
2018-03-06T10:15:40.255Z,37088.00
2018-03-06T10:16:40.269Z,38048.00
2018-03-06T10:17:40.290Z,35392.00
2018-03-06T10:18:40.575Z,36864.00
2018-03-06T10:19:40.322Z,35136.00
2018-03-06T10:20:40.334Z,35264.00
2018-03-06T10:21:40.383Z,37824.00
2018-03-06T10:22:40.365Z,36416.00
2018-03-06T10:23:40.394Z,33760.00
2018-03-06T10:24:40.412Z,34080.00
2018-03-06T10:25:40.424Z,31808.00
2018-03-06T10:26:40.439Z,32416.00
2018-03-06T10:27:40.466Z,34656.00
2018-03-06T10:28:40.470Z,35488.00
2018-03-06T10:29:40.496Z,34176.00
2018-03-06T10:30:40.517Z,34688.00
2018-03-06T10:31:40.548Z,33568.00
2018-03-06T10:32:40.561Z,33952.00
2018-03-06T10:33:40.563Z,33472.00
2018-03-06T10:34:40.582Z,32032.00
2018-03-06T10:35:40.599Z,32768.00
2018-03-06T10:36:40.613Z,34464.00
2018-03-06T10:37:40.640Z,34464.00
2018-03-06T10:38:40.647Z,28480.00
2018-03-06T10:39:40.671Z,33792.00
2018-03-06T10:40:40.691Z,33408.00
2018-03-06T10:41:40.700Z,35872.00
2018-03-06T10:42:40.720Z,36224.00
2018-03-06T10:43:40.735Z,36448.00
2018-03-06T10:44:40.757Z,36224.00
2018-03-06T10:45:40.839Z,36576.00
2018-03-06T10:46:40.790Z,33664.00
2018-03-06T10:47:40.816Z,31872.00
2018-03-06T10:48:40.816Z,30592.00
2018-03-06T10:49:40.873Z,28576.00
2018-03-06T10:50:40.853Z,28896.00
2018-03-06T10:51:40.866Z,27424.00
2018-03-06T10:52:40.893Z,24192.00
2018-03-06T10:53:40.903Z,24576.00
2018-03-06T10:54:40.924Z,24672.00
2018-03-06T10:55:40.932Z,26688.00
2018-03-06T10:56:40.951Z,31296.00
2018-03-06T10:57:40.963Z,35648.00
2018-03-06T10:58:40.987Z,38912.00
2018-03-06T10:59:41.004Z,40352.00
2018-03-06T11:00:41.018Z,42624.00
2018-03-06T11:01:41.031Z,46624.00
2018-03-06T11:02:41.048Z,48000.00
2018-03-06T11:03:41.074Z,49984.00
2018-03-06T11:04:41.084Z,50304.00
2018-03-06T11:05:41.098Z,44224.00
2018-03-06T11:06:41.118Z,46208.00
2018-03-06T11:07:41.139Z,44160.00
2018-03-06T11:08:41.140Z,52224.00
2018-03-06T11:09:41.168Z,59776.00
2018-03-06T11:10:41.177Z,59328.00
2018-03-06T11:11:41.191Z,55232.00
2018-03-06T11:12:41.205Z,48928.00
2018-03-06T11:13:41.220Z,57344.00
2018-03-06T11:14:41.256Z,61824.00
2018-03-06T11:15:41.255Z,57536.00
2018-03-06T11:16:41.275Z,53568.00
2018-03-06T11:17:41.347Z,45984.00
2018-03-06T11:18:41.306Z,45248.00
2018-03-06T11:19:41.322Z,38912.00
2018-03-06T11:20:41.348Z,38880.00
2018-03-06T11:21:41.358Z,35232.00
2018-03-06T11:22:41.376Z,30624.00
2018-03-06T11:23:41.409Z,27520.00
2018-03-06T11:24:41.597Z,24672.00
2018-03-06T11:25:41.465Z,24032.00
2018-03-06T11:26:41.604Z,24160.00
2018-03-06T11:27:41.446Z,22112.00
2018-03-06T11:28:41.463Z,22400.00
2018-03-06T11:29:41.485Z,22944.00
2018-03-06T11:30:41.490Z,22368.00
2018-03-06T11:31:41.511Z,21632.00
2018-03-06T11:32:41.536Z,18176.00
2018-03-06T11:33:42.312Z,18656.00
2018-03-06T11:34:41.567Z,20384.00
2018-03-06T11:35:41.591Z,20544.00
2018-03-06T11:36:41.580Z,20320.00
2018-03-06T11:37:41.615Z,19584.00
2018-03-06T11:38:41.611Z,18016.00
2018-03-06T11:39:41.653Z,18240.00
2018-03-06T11:40:41.642Z,18144.00
2018-03-06T11:41:41.662Z,18144.00
2018-03-06T11:42:41.671Z,17344.00
2018-03-06T11:43:41.688Z,16896.00
2018-03-06T11:44:41.701Z,16384.00
2018-03-06T11:45:41.734Z,15576.00
2018-03-06T11:46:41.741Z,15012.00
2018-03-06T11:47:41.800Z,14680.00
2018-03-06T11:48:41.773Z,13832.00
2018-03-06T11:49:41.772Z,13956.00
2018-03-06T11:50:41.826Z,13240.00
2018-03-06T11:51:41.816Z,13704.00
2018-03-06T11:52:41.830Z,13096.00
2018-03-06T11:53:41.836Z,12940.00
2018-03-06T11:54:41.841Z,13244.00
2018-03-06T11:55:41.857Z,13264.00
2018-03-06T11:56:41.884Z,12572.00
2018-03-06T11:57:41.966Z,12392.00
2018-03-06T11:58:41.897Z,12564.00
2018-03-06T11:59:41.926Z,12416.00
2018-03-06T12:00:42.224Z,12124.00
2018-03-06T12:01:41.949Z,11936.00
2018-03-06T12:02:41.960Z,10796.00
2018-03-06T12:03:41.999Z,10608.00
2018-03-06T12:04:41.985Z,9764.00
2018-03-06T12:05:42.014Z,9272.00
2018-03-06T12:06:42.000Z,8720.00
2018-03-06T12:07:42.022Z,7832.00
2018-03-06T12:08:42.023Z,7480.00
2018-03-06T12:09:42.039Z,7300.00
2018-03-06T12:10:42.056Z,7184.00
2018-03-06T12:11:42.061Z,6996.00
2018-03-06T12:12:42.071Z,6856.00
2018-03-06T12:13:42.085Z,6924.00
2018-03-06T12:14:42.106Z,7032.00
2018-03-06T12:15:42.110Z,7092.00
2018-03-06T12:16:42.115Z,7168.00
2018-03-06T12:17:42.133Z,7108.00
2018-03-06T12:18:42.149Z,7288.00
2018-03-06T12:19:42.155Z,7240.00
2018-03-06T12:20:42.174Z,7180.00
2018-03-06T12:21:42.182Z,7016.00
2018-03-06T12:22:42.190Z,6964.00
2018-03-06T12:23:42.203Z,7076.00
2018-03-06T12:24:42.213Z,7072.00
2018-03-06T12:25:42.233Z,7148.00
2018-03-06T12:26:42.257Z,7180.00
2018-03-06T12:27:42.235Z,7192.00
2018-03-06T12:28:42.722Z,7212.00
2018-03-06T12:29:42.266Z,7228.00
2018-03-06T12:30:42.266Z,7184.00
2018-03-06T12:31:42.275Z,7228.00
2018-03-06T12:32:42.314Z,7024.00
2018-03-06T12:33:42.305Z,7008.00
2018-03-06T12:34:42.315Z,6848.00
2018-03-06T12:35:42.320Z,6876.00
2018-03-06T12:36:42.348Z,6920.00
2018-03-06T12:37:42.336Z,6972.00
2018-03-06T12:38:42.354Z,6992.00
2018-03-06T12:39:42.361Z,6988.00